createdAt,value
2022-09-21T00:01:25.007Z,5.20
2022-09-21T00:04:00.295Z,5.57
2022-09-21T00:06:28.961Z,6.25
2022-09-21T00:08:58.197Z,5.90
2022-09-21T00:11:28.088Z,4.50
2022-09-21T00:14:07.278Z,7.88
2022-09-21T00:16:35.239Z,7.43
2022-09-21T00:19:02.299Z,5.15
2022-09-21T00:21:29.052Z,10.10
2022-09-21T00:23:57.421Z,6.05
2022-09-21T00:26:26.542Z,6.47
2022-09-21T00:28:55.408Z,6.22
2022-09-21T00:31:22.742Z,5.90
2022-09-21T00:33:53.051Z,8.13
2022-09-21T00:36:22.444Z,9.63
2022-09-21T00:38:54.833Z,7.53
2022-09-21T00:41:22.394Z,5.50
2022-09-21T00:44:18.523Z,8.95
2022-09-21T00:46:48.205Z,6.78
2022-09-21T00:49:15.640Z,7.50
2022-09-21T00:51:42.931Z,5.53
2022-09-21T00:54:16.377Z,7.03
2022-09-21T00:56:44.697Z,5.18
2022-09-21T00:59:13.684Z,4.95
2022-09-21T01:01:40.342Z,4.93
2022-09-21T01:04:13.701Z,7.55
2022-09-21T01:06:41.347Z,6.05
2022-09-21T01:09:09.082Z,5.30
2022-09-21T01:11:47.176Z,4.72
2022-09-21T01:14:53.538Z,6.15
2022-09-21T01:17:41.781Z,6.40
2022-09-21T01:20:14.049Z,5.30
2022-09-21T01:23:16.990Z,6.40
2022-09-21T01:26:02.194Z,5.78
2022-09-21T01:28:38.217Z,5.80
2022-09-21T01:31:12.068Z,5.32
2022-09-21T01:33:51.456Z,7.05
2022-09-21T01:37:08.435Z,7.03
2022-09-21T01:39:37.829Z,6.18
2022-09-21T01:42:06.946Z,5.90
2022-09-21T01:44:38.346Z,6.15
2022-09-21T01:47:09.856Z,6.15
2022-09-21T01:49:41.588Z,9.65
2022-09-21T01:52:31.489Z,8.70
2022-09-21T01:55:33.319Z,8.65
2022-09-21T01:58:12.221Z,7.55
2022-09-21T02:00:41.023Z,5.38
2022-09-21T02:03:13.819Z,7.43
2022-09-21T02:05:42.547Z,5.95
2022-09-21T02:08:10.142Z,5.07
2022-09-21T02:10:42.816Z,10.07
2022-09-21T02:13:10.001Z,5.97
2022-09-21T02:15:37.369Z,11.38
2022-09-21T02:18:29.710Z,6.57
2022-09-21T02:21:03.806Z,5.80
2022-09-21T02:23:34.238Z,7.07
2022-09-21T02:26:13.289Z,8.32
2022-09-21T02:28:42.886Z,6.13
2022-09-21T02:31:33.330Z,8.40
2022-09-21T02:34:14.069Z,5.47
2022-09-21T02:36:53.362Z,8.05
2022-09-21T02:39:29.724Z,5.95
2022-09-21T02:42:20.262Z,7.22
2022-09-21T02:45:19.041Z,4.88
2022-09-21T02:47:56.769Z,5.35
2022-09-21T02:50:32.967Z,5.82
2022-09-21T02:53:02.813Z,7.70
2022-09-21T02:55:31.194Z,6.35
2022-09-21T02:57:59.070Z,6.30
2022-09-21T03:00:25.619Z,5.60
2022-09-21T03:02:52.151Z,10.52
2022-09-21T03:05:19.671Z,5.38
2022-09-21T03:07:46.207Z,6.28
2022-09-21T03:10:12.715Z,6.00
2022-09-21T03:12:39.321Z,4.80
2022-09-21T03:15:06.345Z,5.25
2022-09-21T03:17:32.864Z,5.38
2022-09-21T03:19:59.344Z,3.20
2022-09-21T03:22:25.869Z,3.40
2022-09-21T03:24:57.549Z,3.50
2022-09-21T03:27:24.531Z,4.82
2022-09-21T03:29:51.060Z,4.15
2022-09-21T03:32:17.766Z,3.67
2022-09-21T03:34:45.649Z,6.85
2022-09-21T03:37:12.174Z,2.85
2022-09-21T03:39:38.710Z,3.97
2022-09-21T03:42:05.344Z,6.13
2022-09-21T03:44:31.973Z,5.35
2022-09-21T03:46:58.534Z,5.00
2022-09-21T03:49:25.362Z,2.70
2022-09-21T03:51:51.884Z,5.38
2022-09-21T03:54:19.939Z,4.20
2022-09-21T03:56:46.525Z,4.57
2022-09-21T03:59:14.394Z,4.05
2022-09-21T04:01:42.208Z,4.75
2022-09-21T04:04:12.994Z,4.35
2022-09-21T04:06:39.525Z,2.50
2022-09-21T04:09:06.282Z,3.00
2022-09-21T04:11:33.271Z,3.75
2022-09-21T04:14:01.918Z,3.28
2022-09-21T04:16:28.451Z,4.78
2022-09-21T04:18:54.978Z,8.75
2022-09-21T04:21:24.578Z,4.55
2022-09-21T04:23:52.649Z,3.97
2022-09-21T04:26:26.275Z,3.25
2022-09-21T04:28:54.089Z,4.93
2022-09-21T04:31:21.622Z,5.63
2022-09-21T04:33:50.448Z,4.32
2022-09-21T04:36:22.118Z,4.50
2022-09-21T04:38:49.017Z,4.25
2022-09-21T04:41:16.464Z,7.45
2022-09-21T04:43:47.487Z,5.32
2022-09-21T04:46:17.149Z,8.38
2022-09-21T04:48:43.701Z,6.10
2022-09-21T04:51:11.231Z,6.10
2022-09-21T04:53:43.027Z,8.43
2022-09-21T04:56:12.953Z,4.78
2022-09-21T04:58:39.624Z,5.50
2022-09-21T05:01:07.715Z,3.85
2022-09-21T05:03:37.674Z,3.10
2022-09-21T05:06:04.675Z,3.72
2022-09-21T05:08:49.935Z,4.05
2022-09-21T05:11:22.766Z,7.00
2022-09-21T05:13:50.942Z,3.15
2022-09-21T05:16:18.759Z,3.97
2022-09-21T05:18:46.100Z,3.33
2022-09-21T05:21:14.321Z,2.80
2022-09-21T05:23:42.238Z,4.43
2022-09-21T05:26:08.813Z,4.78
2022-09-21T05:28:39.838Z,3.63
2022-09-21T05:31:31.631Z,4.95
2022-09-21T05:34:12.050Z,4.80
2022-09-21T05:36:41.554Z,6.90
2022-09-21T05:39:08.718Z,4.65
2022-09-21T05:41:35.717Z,4.63
2022-09-21T05:44:05.791Z,6.40
2022-09-21T05:46:35.064Z,6.90
2022-09-21T05:49:27.238Z,7.40
2022-09-21T05:52:11.824Z,6.40
2022-09-21T05:54:41.789Z,5.72
2022-09-21T05:57:17.459Z,3.67
2022-09-21T06:00:12.089Z,2.30
2022-09-21T06:03:07.523Z,2.60
2022-09-21T06:05:34.710Z,3.13
2022-09-21T06:08:01.372Z,2.78
2022-09-21T06:10:33.633Z,3.83
2022-09-21T06:13:00.553Z,3.25
2022-09-21T06:15:27.421Z,4.47
2022-09-21T06:17:54.010Z,3.95
2022-09-21T06:20:20.593Z,4.38
2022-09-21T06:22:47.106Z,6.90
2022-09-21T06:25:15.285Z,5.72
2022-09-21T06:27:41.729Z,7.25
2022-09-21T06:30:08.518Z,4.47
2022-09-21T06:32:35.058Z,7.32
2022-09-21T06:35:01.667Z,6.97
2022-09-21T06:37:28.154Z,4.80
2022-09-21T06:39:54.670Z,7.15
2022-09-21T06:42:21.193Z,5.63
2022-09-21T06:44:49.477Z,6.22
2022-09-21T06:47:15.958Z,6.13
2022-09-21T06:49:42.803Z,5.13
2022-09-21T06:52:09.443Z,6.30
2022-09-21T06:54:36.806Z,7.88
2022-09-21T06:57:03.502Z,6.90
2022-09-21T06:59:29.986Z,6.68
2022-09-21T07:01:58.307Z,7.65
2022-09-21T07:04:25.382Z,9.27
2022-09-21T07:06:51.996Z,8.70
2022-09-21T07:12:07.050Z,9.20
2022-09-21T07:14:34.567Z,9.18
2022-09-21T07:17:01.055Z,10.10
2022-09-21T07:19:27.562Z,9.65
2022-09-21T07:21:55.029Z,7.70
2022-09-21T07:24:25.720Z,8.07
2022-09-21T07:26:52.929Z,9.90
2022-09-21T07:29:19.390Z,9.60
2022-09-21T07:31:46.036Z,8.77
2022-09-21T07:34:13.760Z,8.63
2022-09-21T07:36:40.521Z,11.05
2022-09-21T07:39:09.482Z,11.10
2022-09-21T07:41:36.577Z,10.52
2022-09-21T07:44:05.106Z,10.05
2022-09-21T07:46:31.781Z,7.60
2022-09-21T07:48:58.331Z,5.18
2022-09-21T07:51:25.244Z,10.05
2022-09-21T07:53:56.814Z,9.52
2022-09-21T07:56:24.305Z,7.70
2022-09-21T07:59:05.926Z,8.57
2022-09-21T08:01:38.365Z,6.30
2022-09-21T08:04:09.734Z,8.75
2022-09-21T08:06:39.809Z,9.35
2022-09-21T08:09:06.800Z,8.80
2022-09-21T08:11:33.690Z,7.20
2022-09-21T08:14:03.790Z,5.05
2022-09-21T08:16:31.713Z,5.07
2022-09-21T08:18:58.307Z,10.98
2022-09-21T08:21:24.817Z,5.57
2022-09-21T08:23:52.434Z,6.22
2022-09-21T08:26:19.950Z,5.90
2022-09-21T08:28:51.064Z,5.43
2022-09-21T08:31:20.137Z,7.32
2022-09-21T08:33:49.792Z,9.77
2022-09-21T08:36:16.954Z,5.78
2022-09-21T08:38:43.899Z,6.07
2022-09-21T08:41:16.332Z,8.50
2022-09-21T08:44:28.054Z,6.43
2022-09-21T08:47:19.126Z,6.50
2022-09-21T08:49:59.379Z,4.30
2022-09-21T08:52:26.587Z,5.15
2022-09-21T08:55:07.286Z,6.22
2022-09-21T08:57:34.421Z,6.53
2022-09-21T09:00:02.246Z,5.80
2022-09-21T09:02:37.808Z,3.70
2022-09-21T09:05:25.846Z,2.58
2022-09-21T09:08:05.859Z,5.88
2022-09-21T09:11:16.963Z,2.10
2022-09-21T09:14:21.465Z,2.95
2022-09-21T09:16:57.320Z,4.32
2022-09-21T09:19:38.433Z,4.68
2022-09-21T09:22:12.324Z,4.85
2022-09-21T09:25:06.018Z,6.50
2022-09-21T09:27:40.337Z,7.03
2022-09-21T09:30:12.541Z,5.53
2022-09-21T09:33:00.396Z,3.63
2022-09-21T09:35:36.353Z,3.15
2022-09-21T09:38:15.860Z,5.88
2022-09-21T09:40:54.885Z,3.80
2022-09-21T09:43:56.207Z,4.97
2022-09-21T09:46:25.843Z,5.50
2022-09-21T09:49:09.252Z,4.90
2022-09-21T09:51:37.538Z,2.50
2022-09-21T09:54:14.957Z,4.05
2022-09-21T09:56:42.261Z,5.28
2022-09-21T09:59:23.123Z,4.63
2022-09-21T10:02:00.918Z,2.25
2022-09-21T10:04:30.615Z,4.60
2022-09-21T10:06:57.183Z,4.97
2022-09-21T10:09:34.026Z,6.05
2022-09-21T10:12:14.904Z,5.07
2022-09-21T10:14:53.555Z,3.92
2022-09-21T10:17:20.430Z,4.95
2022-09-21T10:19:47.154Z,2.63
2022-09-21T10:22:20.327Z,4.13
2022-09-21T10:24:54.254Z,4.93
2022-09-21T10:27:34.429Z,4.60
2022-09-21T10:30:01.410Z,6.00
2022-09-21T10:32:29.620Z,3.58
2022-09-21T10:35:08.459Z,3.78
2022-09-21T10:37:41.340Z,5.95
2022-09-21T10:40:19.823Z,4.95
2022-09-21T10:42:49.029Z,3.25
2022-09-21T10:45:17.573Z,3.15
2022-09-21T10:47:55.980Z,3.33
2022-09-21T10:50:30.018Z,3.65
2022-09-21T10:53:02.216Z,2.25
2022-09-21T10:55:32.022Z,4.78
2022-09-21T10:57:59.638Z,2.72
2022-09-21T11:00:35.315Z,1.73
2022-09-21T11:03:26.230Z,1.95
2022-09-21T11:05:54.021Z,3.83
2022-09-21T11:08:32.894Z,2.30
2022-09-21T11:11:24.470Z,6.90
2022-09-21T11:14:01.048Z,3.90
2022-09-21T11:16:44.625Z,2.72
2022-09-21T11:19:21.277Z,2.33
2022-09-21T11:22:03.119Z,2.22
2022-09-21T11:24:52.550Z,2.40
2022-09-21T11:27:36.249Z,3.15
2022-09-21T11:30:14.099Z,3.33
2022-09-21T11:33:02.247Z,2.10
2022-09-21T11:35:52.926Z,3.75
2022-09-21T11:38:34.331Z,2.78
2022-09-21T11:41:27.300Z,2.03
2022-09-21T11:44:16.382Z,2.58
2022-09-21T11:47:07.269Z,4.75
2022-09-21T11:49:42.650Z,2.33
2022-09-21T11:52:21.384Z,4.88
2022-09-21T11:55:00.759Z,2.88
2022-09-21T11:57:42.638Z,4.03
2022-09-21T12:00:17.175Z,2.67
2022-09-21T12:02:53.067Z,3.28
2022-09-21T12:05:28.688Z,4.20
2022-09-21T12:08:10.376Z,4.13
2022-09-21T12:10:59.932Z,2.97
2022-09-21T12:13:56.031Z,2.13
2022-09-21T12:17:04.667Z,1.95
2022-09-21T12:19:55.911Z,2.60
2022-09-21T12:22:28.340Z,3.63
2022-09-21T12:25:02.607Z,1.42
2022-09-21T12:27:40.378Z,1.97
2022-09-21T12:30:19.422Z,3.38
2022-09-21T12:32:53.394Z,1.80
2022-09-21T12:35:26.301Z,2.75
2022-09-21T12:38:16.470Z,2.90
2022-09-21T12:41:20.264Z,4.20
2022-09-21T12:44:05.096Z,1.63
2022-09-21T12:46:38.837Z,3.05
2022-09-21T12:49:21.244Z,2.00
2022-09-21T12:51:56.959Z,2.35
2022-09-21T12:54:45.448Z,3.53
2022-09-21T13:00:22.276Z,2.63
2022-09-21T13:03:01.359Z,5.78
2022-09-21T13:05:27.836Z,4.97
2022-09-21T13:08:12.291Z,2.83
2022-09-21T13:11:05.647Z,4.22
2022-09-21T13:13:36.066Z,9.23
2022-09-21T13:16:05.495Z,2.88
2022-09-21T13:18:36.823Z,7.25
2022-09-21T13:21:18.444Z,3.67
2022-09-21T13:24:01.345Z,2.80
2022-09-21T13:26:38.952Z,3.55
2022-09-21T13:29:34.260Z,4.45
2022-09-21T13:32:23.798Z,3.50
2022-09-21T13:35:33.246Z,4.03
2022-09-21T13:38:34.424Z,3.45
2022-09-21T13:41:31.528Z,2.63
2022-09-21T13:44:41.034Z,3.50
2022-09-21T13:47:09.004Z,3.45
2022-09-21T13:49:43.301Z,4.80
2022-09-21T13:52:15.749Z,3.70
2022-09-21T13:54:52.210Z,4.93
2022-09-21T13:57:32.161Z,7.03
2022-09-21T14:00:19.870Z,3.20
2022-09-21T14:03:00.495Z,5.03
2022-09-21T14:05:43.221Z,7.90
2022-09-21T14:08:15.672Z,5.63
2022-09-21T14:10:57.303Z,2.90
2022-09-21T14:13:37.662Z,3.80
2022-09-21T14:16:36.414Z,5.20
2022-09-21T14:19:29.575Z,2.50
2022-09-21T14:22:08.395Z,3.80
2022-09-21T14:24:51.274Z,5.00
2022-09-21T14:27:36.790Z,3.00
2022-09-21T14:30:22.249Z,3.15
2022-09-21T14:33:00.838Z,5.10
2022-09-21T14:35:34.056Z,4.13
2022-09-21T14:38:07.910Z,6.38
2022-09-21T14:40:42.166Z,4.97
2022-09-21T14:43:14.868Z,3.97
2022-09-21T14:46:12.149Z,9.15
2022-09-21T14:48:52.075Z,4.88
2022-09-21T14:51:18.544Z,4.60
2022-09-21T14:54:04.472Z,4.75
2022-09-21T14:56:38.965Z,3.50
2022-09-21T14:59:38.366Z,7.38
2022-09-21T15:02:18.033Z,6.70
2022-09-21T15:05:12.681Z,4.72
2022-09-21T15:08:03.438Z,4.07
2022-09-21T15:10:55.310Z,5.20
2022-09-21T15:14:06.329Z,8.18
2022-09-21T15:16:42.152Z,6.20
2022-09-21T15:19:17.729Z,7.35
2022-09-21T15:21:49.986Z,5.70
2022-09-21T15:24:20.647Z,6.35
2022-09-21T15:26:49.893Z,5.05
2022-09-21T15:29:27.816Z,4.10
2022-09-21T15:31:54.806Z,6.32
2022-09-21T15:34:23.492Z,9.48
2022-09-21T15:36:52.073Z,6.30
2022-09-21T15:39:28.673Z,3.75
2022-09-21T15:42:10.513Z,4.07
2022-09-21T15:44:39.479Z,5.35
2022-09-21T15:47:12.468Z,5.07
2022-09-21T15:49:39.589Z,6.70
2022-09-21T15:52:13.566Z,6.65
2022-09-21T15:54:53.308Z,5.82
2022-09-21T15:57:40.307Z,4.78
2022-09-21T16:00:15.973Z,6.82
2022-09-21T16:02:51.811Z,5.35
2022-09-21T16:05:22.427Z,4.85
2022-09-21T16:07:49.057Z,6.13
2022-09-21T16:10:30.494Z,9.20
2022-09-21T16:13:22.967Z,6.55
2022-09-21T16:16:08.181Z,7.65
2022-09-21T16:18:49.250Z,6.75
2022-09-21T16:21:15.829Z,6.15
2022-09-21T16:23:45.336Z,8.30
2022-09-21T16:26:23.478Z,6.30
2022-09-21T16:28:57.088Z,5.88
2022-09-21T16:31:33.064Z,14.85
2022-09-21T16:34:36.649Z,6.57
2022-09-21T16:37:28.045Z,5.90
2022-09-21T16:39:56.840Z,8.65
2022-09-21T16:42:31.177Z,7.05
2022-09-21T16:44:59.697Z,7.53
2022-09-21T16:47:27.685Z,5.32
2022-09-21T16:50:01.320Z,3.83
2022-09-21T16:52:29.583Z,7.47
2022-09-21T16:55:00.173Z,5.93
2022-09-21T16:57:26.727Z,4.60
2022-09-21T16:59:53.673Z,4.78
2022-09-21T17:02:20.214Z,4.05
2022-09-21T17:04:47.913Z,3.92
2022-09-21T17:07:15.200Z,5.07
2022-09-21T17:09:46.207Z,3.38
2022-09-21T17:12:15.219Z,6.20
2022-09-21T17:14:46.766Z,4.80
2022-09-21T17:17:23.951Z,4.97
2022-09-21T17:19:52.605Z,5.13
2022-09-21T17:22:20.140Z,6.78
2022-09-21T17:24:53.903Z,6.70
2022-09-21T17:27:23.789Z,4.75
2022-09-21T17:29:50.797Z,6.15
2022-09-21T17:32:20.496Z,6.10
2022-09-21T17:34:56.200Z,7.47
2022-09-21T17:37:25.036Z,10.05
2022-09-21T17:39:51.564Z,10.77
2022-09-21T17:42:21.090Z,6.63
2022-09-21T17:45:03.203Z,6.85
2022-09-21T17:47:31.082Z,8.80
2022-09-21T17:50:06.430Z,7.85
2022-09-21T17:55:18.277Z,6.55
2022-09-21T17:57:56.603Z,6.72
2022-09-21T18:00:25.178Z,6.35
2022-09-21T18:02:53.790Z,6.57
2022-09-21T18:05:27.043Z,8.57
2022-09-21T18:07:53.865Z,9.27
2022-09-21T18:10:22.665Z,8.55
2022-09-21T18:13:10.510Z,9.50
2022-09-21T18:15:53.690Z,7.10
2022-09-21T18:18:31.747Z,7.90
2022-09-21T18:21:04.414Z,7.72
2022-09-21T18:24:03.254Z,7.68
2022-09-21T18:26:30.114Z,6.32
2022-09-21T18:28:59.494Z,8.00
2022-09-21T18:31:48.970Z,9.18
2022-09-21T18:34:58.359Z,10.32
2022-09-21T18:37:31.290Z,7.38
2022-09-21T18:40:21.857Z,8.13
2022-09-21T18:42:55.670Z,9.13
2022-09-21T18:45:28.303Z,7.75
2022-09-21T18:48:06.682Z,8.55
2022-09-21T18:50:58.199Z,8.23
2022-09-21T18:53:53.666Z,10.45
2022-09-21T18:56:20.451Z,13.20
2022-09-21T18:58:47.837Z,8.90
2022-09-21T19:01:16.909Z,15.23
2022-09-21T19:03:49.711Z,10.55
2022-09-21T19:06:27.299Z,9.25
2022-09-21T19:08:56.685Z,10.63
2022-09-21T19:11:32.387Z,10.05
2022-09-21T19:14:17.500Z,8.57
2022-09-21T19:16:53.198Z,8.23
2022-09-21T19:19:45.739Z,7.68
2022-09-21T19:22:18.714Z,9.80
2022-09-21T19:24:58.322Z,9.05
2022-09-21T19:27:27.884Z,8.02
2022-09-21T19:30:04.941Z,8.40
2022-09-21T19:32:36.054Z,8.95
2022-09-21T19:35:27.690Z,8.77
2022-09-21T19:37:56.527Z,9.23
2022-09-21T19:40:26.008Z,11.77
2022-09-21T19:43:16.300Z,8.70
2022-09-21T19:46:10.353Z,12.88
2022-09-21T19:48:48.550Z,7.63
2022-09-21T19:51:39.450Z,7.78
2022-09-21T19:54:33.427Z,9.93
2022-09-21T19:57:19.338Z,8.82
2022-09-21T20:02:28.449Z,10.27
2022-09-21T20:05:08.716Z,8.68
2022-09-21T20:07:54.473Z,8.52
2022-09-21T20:10:28.753Z,7.88
2022-09-21T20:13:04.841Z,11.13
2022-09-21T20:15:39.969Z,14.00
2022-09-21T20:18:29.597Z,9.55
2022-09-21T20:20:57.522Z,9.52
2022-09-21T20:23:24.286Z,11.85
2022-09-21T20:26:00.570Z,10.25
2022-09-21T20:28:27.354Z,13.48
2022-09-21T20:30:54.680Z,9.70
2022-09-21T20:33:24.040Z,10.13
2022-09-21T20:35:55.684Z,11.02
2022-09-21T20:38:23.153Z,11.98
2022-09-21T20:40:49.764Z,12.70
2022-09-21T20:43:16.273Z,12.43
2022-09-21T20:45:47.665Z,16.20
2022-09-21T20:48:14.351Z,11.80
2022-09-21T20:50:46.504Z,12.50
2022-09-21T20:53:13.182Z,12.25
2022-09-21T20:55:41.238Z,12.50
2022-09-21T20:58:11.474Z,12.43
2022-09-21T21:00:38.108Z,12.20
2022-09-21T21:03:05.216Z,13.35
2022-09-21T21:05:33.436Z,15.27
2022-09-21T21:08:00.241Z,12.43
2022-09-21T21:10:26.797Z,12.95
2022-09-21T21:12:53.502Z,13.65
2022-09-21T21:15:21.228Z,12.63
2022-09-21T21:17:48.684Z,12.90
2022-09-21T21:20:18.490Z,12.98
2022-09-21T21:22:48.136Z,12.75
2022-09-21T21:25:16.363Z,12.98
2022-09-21T21:27:42.928Z,12.93
2022-09-21T21:30:10.461Z,14.55
2022-09-21T21:32:37.277Z,14.70
2022-09-21T21:35:04.846Z,13.05
2022-09-21T21:37:31.355Z,15.18
2022-09-21T21:39:58.456Z,14.02
2022-09-21T21:42:25.042Z,14.60
2022-09-21T21:44:56.107Z,12.98
2022-09-21T21:50:10.600Z,16.45
2022-09-21T21:52:37.771Z,14.85
2022-09-21T21:55:10.021Z,14.23
2022-09-21T21:57:36.522Z,17.95
2022-09-21T22:00:04.710Z,14.85
2022-09-21T22:02:31.584Z,12.75
2022-09-21T22:04:59.141Z,14.30
2022-09-21T22:07:25.598Z,14.82
2022-09-21T22:09:52.075Z,13.30
2022-09-21T22:12:18.558Z,13.18
2022-09-21T22:14:46.476Z,15.93
2022-09-21T22:17:13.610Z,14.73
2022-09-21T22:19:40.307Z,12.73
2022-09-21T22:22:06.777Z,13.90
2022-09-21T22:24:34.853Z,13.18
2022-09-21T22:27:01.413Z,13.32
2022-09-21T22:29:27.884Z,14.50
2022-09-21T22:31:55.500Z,14.00
2022-09-21T22:34:24.890Z,12.77
2022-09-21T22:36:51.438Z,13.48
2022-09-21T22:39:18.217Z,13.93
2022-09-21T22:41:44.807Z,14.57
2022-09-21T22:44:15.905Z,13.70
2022-09-21T22:46:42.444Z,13.07
2022-09-21T22:49:08.985Z,13.98
2022-09-21T22:51:36.083Z,13.32
2022-09-21T22:54:02.918Z,13.57
2022-09-21T22:56:31.555Z,16.48
2022-09-21T22:59:00.998Z,13.63
2022-09-21T23:01:30.262Z,15.73
2022-09-21T23:04:06.975Z,14.10
2022-09-21T23:06:36.008Z,13.77
2022-09-21T23:09:06.487Z,14.07
2022-09-21T23:11:38.678Z,14.10
2022-09-21T23:14:11.250Z,13.70
2022-09-21T23:16:38.073Z,14.63
2022-09-21T23:19:04.777Z,16.30
2022-09-21T23:21:31.510Z,13.23
2022-09-21T23:24:01.837Z,13.13
2022-09-21T23:26:30.748Z,13.60
2022-09-21T23:29:03.508Z,11.73
2022-09-21T23:31:31.761Z,10.95
2022-09-21T23:34:04.603Z,12.20
2022-09-21T23:36:32.555Z,13.07
2022-09-21T23:38:59.840Z,16.48
2022-09-21T23:41:29.794Z,13.68
2022-09-21T23:43:57.860Z,14.55
2022-09-21T23:46:28.211Z,11.63
2022-09-21T23:48:54.877Z,12.63
2022-09-21T23:51:22.041Z,11.93
2022-09-21T23:53:52.017Z,12.05
2022-09-21T23:56:21.493Z,11.68
2022-09-21T23:58:49.339Z,14.20
